createdAt,value
2017-10-30T00:00:57.527Z,6.84
2017-10-30T00:03:32.059Z,6.83
2017-10-30T00:06:06.498Z,6.78
2017-10-30T00:08:41.035Z,6.74
2017-10-30T00:11:15.506Z,6.71
2017-10-30T00:13:50.123Z,6.67
2017-10-30T00:16:24.532Z,6.71
2017-10-30T00:18:59.010Z,6.66
2017-10-30T00:21:33.527Z,6.66
2017-10-30T00:24:08.031Z,6.63
2017-10-30T00:26:42.500Z,6.66
2017-10-30T00:29:17.051Z,6.71
2017-10-30T00:31:51.479Z,6.74
2017-10-30T00:34:26.480Z,6.61
2017-10-30T00:37:01.041Z,6.76
2017-10-30T00:39:35.676Z,6.84
2017-10-30T00:42:10.103Z,6.87
2017-10-30T00:44:44.714Z,6.90
2017-10-30T00:47:19.102Z,6.91
2017-10-30T00:49:53.722Z,6.91
2017-10-30T00:52:27.995Z,6.92
2017-10-30T00:55:03.073Z,6.86
2017-10-30T00:57:42.643Z,6.97
2017-10-30T01:00:17.111Z,6.98
2017-10-30T01:02:51.027Z,6.91
2017-10-30T01:05:25.551Z,6.95
2017-10-30T01:08:00.121Z,6.96
2017-10-30T01:10:34.600Z,6.94
2017-10-30T01:13:09.198Z,6.93
2017-10-30T01:15:43.702Z,6.92
2017-10-30T01:18:18.123Z,6.98
2017-10-30T01:20:52.596Z,6.97
2017-10-30T01:23:27.122Z,6.93
2017-10-30T01:26:01.587Z,6.96
2017-10-30T01:28:36.295Z,7.00
2017-10-30T01:31:10.878Z,7.03
2017-10-30T01:33:45.399Z,7.10
2017-10-30T01:36:19.814Z,7.09
2017-10-30T01:38:54.231Z,7.12
2017-10-30T01:41:28.765Z,7.21
2017-10-30T01:44:03.196Z,7.16
2017-10-30T01:46:37.683Z,7.17
2017-10-30T01:49:12.406Z,7.20
2017-10-30T01:51:46.887Z,7.24
2017-10-30T01:54:21.415Z,7.27
2017-10-30T01:56:55.619Z,7.28
2017-10-30T01:59:29.790Z,7.16
2017-10-30T02:02:04.203Z,7.24
2017-10-30T02:04:38.868Z,7.20
2017-10-30T02:07:13.303Z,6.82
2017-10-30T02:09:47.827Z,7.11
2017-10-30T02:12:22.223Z,7.11
2017-10-30T02:14:56.690Z,7.08
2017-10-30T02:17:31.114Z,7.08
2017-10-30T02:20:14.331Z,7.03
2017-10-30T02:22:48.519Z,7.04
2017-10-30T02:25:23.282Z,7.05
2017-10-30T02:27:57.456Z,7.06
2017-10-30T02:30:31.922Z,7.02
2017-10-30T02:33:06.406Z,6.99
2017-10-30T02:35:40.936Z,6.97
2017-10-30T02:38:15.373Z,6.95
2017-10-30T02:40:49.697Z,6.96
2017-10-30T02:43:23.903Z,6.88
2017-10-30T02:45:58.426Z,6.83
2017-10-30T02:48:32.639Z,6.78
2017-10-30T02:51:06.853Z,6.73
2017-10-30T02:53:40.894Z,6.67
2017-10-30T02:56:16.070Z,6.63
2017-10-30T02:58:50.514Z,6.61
2017-10-30T03:01:24.915Z,6.62
2017-10-30T03:03:59.162Z,6.59
2017-10-30T03:06:33.264Z,6.57
2017-10-30T03:09:07.524Z,6.58
2017-10-30T03:11:41.567Z,6.53
2017-10-30T03:14:16.075Z,6.49
2017-10-30T03:16:50.626Z,6.45
2017-10-30T03:19:24.823Z,6.26
2017-10-30T03:21:59.299Z,6.44
2017-10-30T03:24:33.350Z,6.42
2017-10-30T03:27:07.467Z,6.48
2017-10-30T03:29:42.072Z,6.41
2017-10-30T03:32:16.128Z,6.44
2017-10-30T03:34:50.558Z,6.43
2017-10-30T03:37:25.206Z,6.43
2017-10-30T03:39:59.791Z,6.42
2017-10-30T03:42:34.233Z,6.44
2017-10-30T03:45:14.605Z,6.45
2017-10-30T03:47:49.980Z,6.46
2017-10-30T03:50:24.526Z,6.47
2017-10-30T03:52:59.170Z,6.51
2017-10-30T03:55:33.650Z,6.50
2017-10-30T03:58:08.189Z,6.49
2017-10-30T04:00:42.645Z,6.47
2017-10-30T04:03:16.811Z,6.48
2017-10-30T04:05:51.321Z,6.50
2017-10-30T04:08:26.040Z,6.50
2017-10-30T04:11:00.581Z,6.53
2017-10-30T04:13:35.085Z,6.53
2017-10-30T04:16:09.494Z,6.56
2017-10-30T04:18:44.104Z,6.58
2017-10-30T04:21:18.931Z,6.58
2017-10-30T04:23:53.507Z,6.60
2017-10-30T04:26:27.967Z,6.62
2017-10-30T04:29:02.522Z,6.65
2017-10-30T04:31:36.907Z,6.66
2017-10-30T04:34:11.330Z,6.70
2017-10-30T04:36:45.757Z,6.68
2017-10-30T04:39:20.532Z,6.71
2017-10-30T04:41:55.151Z,6.78
2017-10-30T04:44:29.641Z,6.74
2017-10-30T04:47:04.105Z,6.71
2017-10-30T04:49:38.646Z,6.70
2017-10-30T04:52:13.171Z,6.64
2017-10-30T04:54:47.931Z,6.63
2017-10-30T04:57:22.439Z,6.61
2017-10-30T04:59:57.050Z,6.65
2017-10-30T05:02:31.452Z,6.60
2017-10-30T05:05:09.951Z,6.63
2017-10-30T05:07:44.482Z,6.60
2017-10-30T05:10:19.008Z,6.59
2017-10-30T05:12:53.454Z,6.57
2017-10-30T05:15:27.874Z,6.56
2017-10-30T05:18:02.438Z,6.52
2017-10-30T05:20:37.062Z,6.52
2017-10-30T05:23:11.507Z,6.45
2017-10-30T05:25:45.939Z,6.46
2017-10-30T05:28:20.483Z,6.47
2017-10-30T05:30:55.134Z,6.43
2017-10-30T05:33:30.333Z,6.39
2017-10-30T05:36:04.950Z,6.37
2017-10-30T05:38:39.411Z,6.38
2017-10-30T05:41:14.011Z,6.37
2017-10-30T05:43:48.629Z,6.39
2017-10-30T05:46:23.118Z,6.43
2017-10-30T05:48:57.687Z,6.45
2017-10-30T05:51:32.174Z,6.53
2017-10-30T05:54:06.811Z,6.56
2017-10-30T05:56:41.247Z,6.54
2017-10-30T05:59:15.687Z,6.59
2017-10-30T06:01:50.134Z,6.61
2017-10-30T06:04:24.559Z,6.64
2017-10-30T06:06:59.404Z,6.68
2017-10-30T06:09:33.790Z,6.70
2017-10-30T06:12:08.361Z,6.71
2017-10-30T06:14:42.814Z,6.72
2017-10-30T06:17:17.316Z,6.88
2017-10-30T06:19:52.059Z,6.85
2017-10-30T06:22:26.647Z,6.90
2017-10-30T06:25:01.133Z,6.91
2017-10-30T06:27:35.793Z,6.91
2017-10-30T06:30:17.633Z,6.94
2017-10-30T06:32:52.290Z,6.86
2017-10-30T06:35:26.709Z,6.89
2017-10-30T06:38:01.235Z,6.91
2017-10-30T06:40:35.655Z,6.82
2017-10-30T06:43:10.972Z,6.79
2017-10-30T06:45:45.457Z,6.74
2017-10-30T06:48:20.023Z,6.76
2017-10-30T06:50:54.567Z,6.75
2017-10-30T06:53:29.436Z,6.87
2017-10-30T06:56:03.961Z,6.86
2017-10-30T06:58:38.851Z,6.71
2017-10-30T07:01:13.831Z,6.81
2017-10-30T07:03:48.367Z,6.86
2017-10-30T07:06:22.802Z,6.86
2017-10-30T07:08:57.262Z,6.87
2017-10-30T07:11:32.128Z,6.94
2017-10-30T07:14:06.847Z,6.88
2017-10-30T07:16:41.234Z,6.93
2017-10-30T07:19:15.783Z,6.97
2017-10-30T07:21:50.182Z,7.00
2017-10-30T07:24:24.750Z,6.96
2017-10-30T07:26:59.263Z,7.02
2017-10-30T07:29:33.899Z,7.00
2017-10-30T07:32:08.299Z,6.89
2017-10-30T07:34:42.890Z,6.78
2017-10-30T07:37:17.419Z,6.70
2017-10-30T07:39:52.014Z,6.57
2017-10-30T07:42:26.438Z,6.40
2017-10-30T07:45:00.851Z,6.28
2017-10-30T07:47:35.284Z,6.06
2017-10-30T07:50:15.447Z,6.03
2017-10-30T07:52:49.873Z,6.13
2017-10-30T07:55:24.254Z,6.12
2017-10-30T07:57:58.331Z,6.13
2017-10-30T08:00:32.381Z,6.15
2017-10-30T08:03:06.634Z,6.11
2017-10-30T08:05:41.145Z,6.10
2017-10-30T08:08:15.812Z,6.11
2017-10-30T08:10:49.944Z,6.13
2017-10-30T08:13:24.158Z,6.23
2017-10-30T08:15:58.328Z,6.33
2017-10-30T08:18:32.806Z,6.41
2017-10-30T08:21:06.899Z,6.50
2017-10-30T08:23:41.018Z,6.52
2017-10-30T08:26:15.487Z,6.57
2017-10-30T08:28:49.746Z,6.62
2017-10-30T08:31:24.208Z,6.73
2017-10-30T08:33:58.375Z,6.73
2017-10-30T08:36:32.423Z,6.81
2017-10-30T08:39:06.994Z,7.04
2017-10-30T08:41:41.138Z,7.15
2017-10-30T08:44:15.654Z,7.19
2017-10-30T08:46:50.491Z,7.31
2017-10-30T08:49:25.015Z,7.25
2017-10-30T08:51:59.230Z,7.22
2017-10-30T08:54:33.524Z,7.21
2017-10-30T08:57:08.270Z,7.30
2017-10-30T08:59:43.377Z,7.10
2017-10-30T09:02:17.432Z,7.09
2017-10-30T09:04:51.668Z,6.71
2017-10-30T09:07:25.906Z,6.50
2017-10-30T09:10:00.075Z,6.53
2017-10-30T09:12:34.185Z,6.53
2017-10-30T09:15:12.853Z,6.67
2017-10-30T09:17:46.987Z,6.56
2017-10-30T09:20:28.363Z,6.31
2017-10-30T09:23:02.547Z,6.21
2017-10-30T09:25:36.675Z,6.46
2017-10-30T09:28:10.691Z,6.84
2017-10-30T09:30:44.926Z,6.88
2017-10-30T09:33:19.071Z,6.87
2017-10-30T09:35:53.182Z,7.58
2017-10-30T09:38:27.625Z,8.39
2017-10-30T09:41:02.177Z,8.48
2017-10-30T09:43:36.287Z,9.10
2017-10-30T09:46:10.925Z,9.48
2017-10-30T09:48:45.076Z,9.66
2017-10-30T09:51:19.570Z,9.37
2017-10-30T09:53:53.770Z,9.15
2017-10-30T09:56:27.874Z,8.71
2017-10-30T09:59:02.137Z,9.00
2017-10-30T10:01:36.811Z,8.62
2017-10-30T10:04:11.021Z,9.14
2017-10-30T10:06:45.522Z,8.90
2017-10-30T10:09:19.802Z,9.67
2017-10-30T10:11:54.489Z,9.95
2017-10-30T10:14:29.034Z,10.12
2017-10-30T10:17:03.948Z,10.25
2017-10-30T10:19:38.339Z,10.73
2017-10-30T10:22:12.825Z,9.84
2017-10-30T10:24:47.338Z,10.04
2017-10-30T10:27:21.846Z,10.28
2017-10-30T10:29:56.116Z,10.23
2017-10-30T10:32:30.607Z,10.32
2017-10-30T10:35:09.460Z,10.09
2017-10-30T10:37:43.982Z,9.94
2017-10-30T10:40:18.137Z,10.24
2017-10-30T10:42:52.382Z,10.21
2017-10-30T10:45:26.501Z,9.91
2017-10-30T10:48:00.407Z,9.83
2017-10-30T10:50:34.810Z,9.70
2017-10-30T10:53:09.388Z,9.88
2017-10-30T10:55:43.835Z,9.26
2017-10-30T10:58:18.379Z,9.26
2017-10-30T11:00:52.847Z,8.16
2017-10-30T11:03:27.270Z,7.77
2017-10-30T11:06:01.682Z,7.80
2017-10-30T11:08:36.106Z,7.74
2017-10-30T11:11:10.597Z,7.63
2017-10-30T11:13:45.083Z,7.59
2017-10-30T11:16:19.914Z,7.36
2017-10-30T11:18:54.151Z,7.46
2017-10-30T11:21:28.740Z,7.75
2017-10-30T11:24:03.147Z,7.92
2017-10-30T11:26:37.575Z,8.16
2017-10-30T11:29:12.179Z,8.33
2017-10-30T11:31:46.619Z,8.25
2017-10-30T11:34:21.171Z,8.45
2017-10-30T11:36:55.630Z,8.48
2017-10-30T11:39:30.194Z,8.69
2017-10-30T11:42:04.570Z,8.54
2017-10-30T11:44:39.112Z,8.50
2017-10-30T11:47:13.627Z,8.43
2017-10-30T11:49:48.182Z,8.48
2017-10-30T11:52:22.704Z,8.59
2017-10-30T11:54:57.344Z,8.66
2017-10-30T11:57:31.987Z,8.85
2017-10-30T12:00:06.086Z,8.89
2017-10-30T12:02:40.580Z,8.92
2017-10-30T12:05:15.090Z,8.95
2017-10-30T12:07:49.596Z,8.89
2017-10-30T12:10:23.714Z,9.08
2017-10-30T12:12:58.310Z,9.11
2017-10-30T12:15:32.761Z,9.04
2017-10-30T12:18:07.135Z,9.12
2017-10-30T12:20:41.641Z,9.14
2017-10-30T12:23:16.218Z,9.12
2017-10-30T12:25:50.711Z,8.97
2017-10-30T12:28:25.491Z,8.84
2017-10-30T12:30:59.892Z,8.76
2017-10-30T12:33:34.794Z,8.82
2017-10-30T12:36:09.407Z,8.80
2017-10-30T12:38:44.007Z,8.77
2017-10-30T12:41:18.472Z,8.60
2017-10-30T12:43:53.005Z,8.52
2017-10-30T12:46:27.413Z,8.36
2017-10-30T12:49:01.991Z,8.36
2017-10-30T12:51:36.389Z,8.31
2017-10-30T12:54:10.926Z,8.37
2017-10-30T12:56:45.346Z,8.43
2017-10-30T12:59:20.047Z,8.43
2017-10-30T13:01:54.462Z,8.43
2017-10-30T13:04:29.085Z,8.66
2017-10-30T13:07:03.572Z,8.99
2017-10-30T13:09:38.094Z,8.82
2017-10-30T13:12:12.571Z,9.00
2017-10-30T13:14:47.139Z,9.09
2017-10-30T13:17:21.881Z,8.70
2017-10-30T13:19:56.514Z,8.60
2017-10-30T13:22:30.978Z,8.52
2017-10-30T13:25:05.467Z,8.42
2017-10-30T13:27:39.875Z,8.40
2017-10-30T13:30:14.342Z,8.55
2017-10-30T13:32:48.695Z,8.51
2017-10-30T13:35:23.542Z,8.62
2017-10-30T13:37:58.133Z,8.66
2017-10-30T13:40:32.582Z,8.66
2017-10-30T13:43:08.054Z,8.60
2017-10-30T13:45:42.646Z,8.44
2017-10-30T13:48:17.230Z,8.52
2017-10-30T13:50:51.983Z,8.52
2017-10-30T13:53:26.531Z,8.48
2017-10-30T13:56:01.015Z,8.41
2017-10-30T13:58:35.610Z,8.59
2017-10-30T14:01:10.112Z,8.63
2017-10-30T14:03:44.652Z,8.46
2017-10-30T14:06:19.070Z,8.51
2017-10-30T14:08:53.568Z,8.52
2017-10-30T14:11:28.275Z,8.50
2017-10-30T14:14:02.870Z,8.45
2017-10-30T14:16:37.355Z,8.50
2017-10-30T14:19:11.866Z,8.55
2017-10-30T14:21:46.247Z,8.56
2017-10-30T14:24:20.813Z,8.54
2017-10-30T14:26:55.306Z,8.48
2017-10-30T14:29:29.930Z,8.44
2017-10-30T14:32:03.998Z,8.44
2017-10-30T14:34:38.213Z,8.39
2017-10-30T14:37:12.712Z,8.42
2017-10-30T14:39:46.996Z,8.43
2017-10-30T14:42:21.486Z,8.45
2017-10-30T14:44:56.015Z,8.48
2017-10-30T14:47:30.102Z,8.48
2017-10-30T14:50:04.191Z,8.47
2017-10-30T14:52:38.242Z,8.41
2017-10-30T14:55:12.417Z,8.42
2017-10-30T14:57:46.579Z,8.40
2017-10-30T15:00:20.447Z,8.40
2017-10-30T15:02:54.644Z,8.39
2017-10-30T15:05:28.694Z,8.44
2017-10-30T15:08:03.003Z,8.38
2017-10-30T15:10:37.282Z,8.34
2017-10-30T15:13:11.906Z,8.32
2017-10-30T15:15:46.335Z,8.18
2017-10-30T15:18:20.947Z,7.95
2017-10-30T15:20:55.071Z,7.95
2017-10-30T15:23:29.099Z,7.79
2017-10-30T15:26:03.580Z,7.77
2017-10-30T15:28:37.961Z,7.56
2017-10-30T15:31:12.451Z,7.32
2017-10-30T15:33:47.154Z,7.27
2017-10-30T15:36:21.637Z,7.38
2017-10-30T15:38:56.256Z,7.45
2017-10-30T15:41:30.772Z,7.34
2017-10-30T15:44:05.362Z,7.25
2017-10-30T15:46:39.789Z,7.28
2017-10-30T15:49:14.698Z,7.21
2017-10-30T15:51:49.326Z,7.23
2017-10-30T15:54:23.571Z,7.29
2017-10-30T15:56:58.040Z,7.34
2017-10-30T15:59:32.674Z,7.41
2017-10-30T16:02:07.076Z,7.38
2017-10-30T16:04:41.643Z,7.32
2017-10-30T16:07:16.766Z,7.33
2017-10-30T16:09:51.364Z,7.41
2017-10-30T16:12:25.770Z,7.44
2017-10-30T16:15:00.350Z,7.52
2017-10-30T16:17:34.958Z,7.49
2017-10-30T16:20:09.479Z,7.51
2017-10-30T16:22:44.004Z,7.52
2017-10-30T16:25:18.522Z,7.60
2017-10-30T16:27:53.021Z,7.56
2017-10-30T16:30:27.205Z,7.55
2017-10-30T16:33:01.736Z,7.60
2017-10-30T16:35:36.196Z,7.57
2017-10-30T16:38:10.818Z,7.49
2017-10-30T16:40:45.206Z,7.47
2017-10-30T16:43:19.814Z,7.38
2017-10-30T16:45:54.232Z,7.38
2017-10-30T16:48:28.831Z,7.43
2017-10-30T16:51:03.239Z,7.31
2017-10-30T16:53:37.755Z,7.43
2017-10-30T16:56:11.905Z,7.34
2017-10-30T16:58:46.517Z,7.38
2017-10-30T17:01:20.983Z,7.19
2017-10-30T17:03:55.607Z,7.33
2017-10-30T17:06:30.026Z,7.35
2017-10-30T17:09:04.011Z,7.39
2017-10-30T17:11:38.689Z,7.47
2017-10-30T17:14:13.187Z,7.55
2017-10-30T17:16:47.774Z,7.41
2017-10-30T17:19:22.270Z,7.30
2017-10-30T17:21:56.715Z,7.21
2017-10-30T17:24:31.315Z,7.03
2017-10-30T17:27:05.769Z,7.01
2017-10-30T17:29:40.419Z,6.96
2017-10-30T17:32:15.007Z,6.89
2017-10-30T17:34:49.635Z,6.96
2017-10-30T17:37:24.133Z,6.92
2017-10-30T17:39:58.707Z,6.80
2017-10-30T17:42:33.135Z,6.84
2017-10-30T17:45:07.638Z,6.72
2017-10-30T17:47:42.184Z,6.74
2017-10-30T17:50:16.575Z,6.77
2017-10-30T17:52:51.202Z,6.82
2017-10-30T17:55:25.688Z,6.89
2017-10-30T17:58:00.443Z,6.85
2017-10-30T18:00:34.856Z,6.86
2017-10-30T18:03:09.035Z,6.74
2017-10-30T18:05:43.470Z,6.66
2017-10-30T18:08:18.101Z,6.67
2017-10-30T18:10:52.759Z,6.68
2017-10-30T18:13:27.255Z,6.73
2017-10-30T18:16:01.744Z,6.81
2017-10-30T18:18:36.138Z,6.69
2017-10-30T18:21:10.591Z,7.05
2017-10-30T18:23:45.179Z,7.17
2017-10-30T18:26:19.576Z,7.19
2017-10-30T18:28:54.090Z,7.17
2017-10-30T18:31:28.519Z,7.31
2017-10-30T18:34:02.865Z,7.35
2017-10-30T18:36:37.548Z,7.36
2017-10-30T18:39:12.093Z,7.31
2017-10-30T18:41:46.547Z,7.34
2017-10-30T18:44:21.083Z,7.42
2017-10-30T18:46:55.584Z,7.14
2017-10-30T18:49:30.215Z,6.98
2017-10-30T18:52:04.433Z,6.90
2017-10-30T18:54:38.879Z,6.88
2017-10-30T18:57:13.383Z,6.87
2017-10-30T18:59:47.757Z,6.94
2017-10-30T19:02:22.219Z,6.82
2017-10-30T19:04:56.775Z,6.67
2017-10-30T19:07:31.182Z,6.56
2017-10-30T19:10:07.583Z,5.67
2017-10-30T19:12:42.254Z,6.39
2017-10-30T19:15:17.100Z,6.38
2017-10-30T19:17:51.605Z,6.40
2017-10-30T19:20:26.070Z,6.43
2017-10-30T19:23:00.584Z,6.44
2017-10-30T19:25:35.058Z,6.48
2017-10-30T19:28:09.319Z,6.56
2017-10-30T19:30:43.835Z,6.61
2017-10-30T19:33:18.433Z,6.58
2017-10-30T19:35:52.964Z,6.47
2017-10-30T19:38:27.506Z,6.51
2017-10-30T19:41:01.920Z,6.44
2017-10-30T19:43:36.519Z,6.38
2017-10-30T19:46:10.919Z,6.37
2017-10-30T19:48:45.487Z,6.31
2017-10-30T19:51:19.890Z,6.28
2017-10-30T19:53:54.466Z,6.33
2017-10-30T19:56:28.927Z,6.33
2017-10-30T19:59:03.336Z,6.30
2017-10-30T20:01:37.817Z,6.32
2017-10-30T20:04:12.042Z,6.31
2017-10-30T20:06:51.942Z,6.20
2017-10-30T20:09:32.325Z,6.12
2017-10-30T20:12:12.069Z,6.13
2017-10-30T20:14:46.574Z,6.12
2017-10-30T20:17:21.055Z,6.17
2017-10-30T20:19:55.462Z,6.22
2017-10-30T20:22:29.942Z,6.26
2017-10-30T20:25:12.818Z,6.31
2017-10-30T20:27:47.230Z,6.33
2017-10-30T20:30:21.650Z,6.36
2017-10-30T20:32:56.142Z,6.35
2017-10-30T20:35:30.560Z,6.32
2017-10-30T20:38:05.034Z,6.27
2017-10-30T20:40:39.424Z,6.23
2017-10-30T20:43:14.026Z,6.21
2017-10-30T20:45:48.405Z,6.11
2017-10-30T20:48:23.038Z,6.21
2017-10-30T20:50:57.574Z,6.15
2017-10-30T20:53:32.247Z,6.11
2017-10-30T20:56:06.695Z,6.07
2017-10-30T20:58:41.306Z,6.03
2017-10-30T21:01:15.753Z,6.06
2017-10-30T21:03:50.336Z,6.07
2017-10-30T21:06:24.735Z,6.04
2017-10-30T21:08:59.362Z,6.03
2017-10-30T21:11:35.211Z,6.08
2017-10-30T21:14:09.616Z,6.12
2017-10-30T21:16:44.033Z,6.11
2017-10-30T21:19:18.592Z,6.12
2017-10-30T21:21:53.114Z,6.12
2017-10-30T21:24:28.506Z,6.09
2017-10-30T21:27:02.987Z,5.93
2017-10-30T21:29:37.446Z,5.86
2017-10-30T21:32:11.830Z,5.74
2017-10-30T21:34:46.431Z,5.69
2017-10-30T21:37:20.807Z,5.56
2017-10-30T21:39:55.430Z,5.67
2017-10-30T21:42:29.951Z,5.63
2017-10-30T21:45:10.338Z,5.73
2017-10-30T21:47:44.715Z,5.70
2017-10-30T21:50:19.178Z,5.70
2017-10-30T21:52:53.707Z,5.68
2017-10-30T21:55:28.150Z,5.65
2017-10-30T21:58:02.669Z,5.69
2017-10-30T22:00:37.139Z,5.74
2017-10-30T22:03:11.120Z,5.71
2017-10-30T22:05:45.715Z,5.65
2017-10-30T22:08:20.437Z,5.54
2017-10-30T22:10:54.968Z,5.67
2017-10-30T22:13:29.550Z,5.65
2017-10-30T22:16:04.654Z,5.66
2017-10-30T22:18:38.946Z,5.53
2017-10-30T22:21:13.598Z,5.59
2017-10-30T22:23:48.142Z,5.60
2017-10-30T22:26:22.565Z,5.60
2017-10-30T22:28:57.151Z,5.60
2017-10-30T22:31:31.627Z,5.59
2017-10-30T22:34:06.203Z,5.59
2017-10-30T22:36:40.654Z,5.65
2017-10-30T22:39:15.241Z,5.69
2017-10-30T22:41:49.775Z,5.56
2017-10-30T22:44:24.223Z,5.66
2017-10-30T22:46:58.670Z,5.65
2017-10-30T22:49:33.296Z,5.67
2017-10-30T22:52:07.679Z,5.69
2017-10-30T22:54:42.288Z,5.70
2017-10-30T22:57:16.745Z,5.73
2017-10-30T22:59:51.357Z,5.68
2017-10-30T23:02:25.795Z,5.64
2017-10-30T23:05:00.310Z,5.72
2017-10-30T23:07:34.791Z,5.70
2017-10-30T23:10:14.922Z,5.36
2017-10-30T23:12:49.519Z,5.70
2017-10-30T23:15:24.734Z,5.72
2017-10-30T23:17:59.266Z,5.77
2017-10-30T23:20:34.103Z,5.76
2017-10-30T23:23:08.706Z,5.62
2017-10-30T23:25:43.145Z,5.57
2017-10-30T23:28:17.686Z,5.57
2017-10-30T23:30:52.103Z,5.58
2017-10-30T23:33:26.514Z,5.59
2017-10-30T23:36:01.034Z,5.55
2017-10-30T23:38:35.582Z,5.56
2017-10-30T23:41:09.999Z,5.47
2017-10-30T23:43:44.630Z,5.45
2017-10-30T23:46:19.106Z,5.46
2017-10-30T23:48:53.762Z,5.43
2017-10-30T23:51:28.170Z,5.46
2017-10-30T23:54:02.694Z,5.42
2017-10-30T23:56:37.167Z,5.44
2017-10-30T23:59:11.640Z,5.43
